Terminal Aerodrome Forecast
Issued by NWS

Home | Current Version | Previous Version | Graphics & Text | Print | Product List | Glossary Off
Versions: 1 2 3 4 5 6 7 8 9 10 11 12 13 14 15 16

000
FTUS43 KTOP 231735
TAFMHK
TAF
KMHK 231735Z 2318/2418 18021G34KT P6SM FEW250
     FM240200 18023G32KT P6SM BKN200 WS020/18055KT
     FM241200 18014G26KT P6SM BKN150=

USA.gov is the U.S. government's official web portal to all federal, state and local government web resources and services.